createdAt,value
2019-06-07T00:03:39.231Z,29.30
2019-06-07T00:06:24.559Z,29.30
2019-06-07T00:09:03.354Z,29.30
2019-06-07T00:11:47.536Z,29.30
2019-06-07T00:14:27.636Z,29.40
2019-06-07T00:17:07.786Z,29.30
2019-06-07T00:19:51.236Z,29.40
2019-06-07T00:22:33.616Z,29.40
2019-06-07T00:25:22.793Z,29.50
2019-06-07T00:27:58.978Z,29.60
2019-06-07T00:30:50.812Z,29.90
2019-06-07T00:33:24.758Z,29.90
2019-06-07T00:36:14.087Z,29.80
2019-06-07T00:39:18.758Z,29.70
2019-06-07T00:41:51.919Z,29.70
2019-06-07T00:47:38.134Z,29.90
2019-06-07T00:53:32.300Z,29.80
2019-06-07T00:56:18.745Z,29.90
2019-06-07T00:59:10.903Z,29.90
2019-06-07T01:01:44.760Z,29.90
2019-06-07T01:04:27.834Z,29.90
2019-06-07T01:10:08.759Z,30.00
2019-06-07T01:15:57.721Z,30.00
2019-06-07T01:18:46.598Z,30.10
2019-06-07T01:21:29.449Z,30.10
2019-06-07T01:24:12.549Z,30.10
2019-06-07T01:30:00.050Z,30.30
2019-06-07T01:35:50.288Z,30.70
2019-06-07T01:38:37.991Z,30.80
2019-06-07T01:41:25.405Z,30.80
2019-06-07T01:44:03.364Z,30.70
2019-06-07T01:49:52.627Z,30.80
2019-06-07T01:52:37.007Z,30.80
2019-06-07T01:58:19.815Z,30.80
2019-06-07T02:01:01.516Z,30.80
2019-06-07T02:03:41.345Z,30.90
2019-06-07T02:06:33.181Z,30.90
2019-06-07T02:09:16.312Z,30.90
2019-06-07T02:12:25.236Z,30.80
2019-06-07T02:14:50.181Z,31.00
2019-06-07T02:18:23.221Z,31.00
2019-06-07T02:24:41.342Z,31.00
2019-06-07T02:27:47.434Z,31.40
2019-06-07T02:30:44.207Z,31.40
2019-06-07T02:33:10.386Z,31.30
2019-06-07T02:45:00.563Z,31.30
2019-06-07T02:47:45.839Z,31.30
2019-06-07T02:50:42.927Z,31.40
2019-06-07T02:53:29.957Z,31.60
2019-06-07T02:59:47.121Z,31.70
2019-06-07T03:02:07.264Z,31.50
2019-06-07T03:08:04.253Z,31.50
2019-06-07T03:11:04.317Z,31.50
2019-06-07T03:13:46.258Z,31.50
2019-06-07T03:22:59.118Z,31.70
2019-06-07T03:26:14.463Z,31.80
2019-06-07T03:29:36.610Z,31.70
2019-06-07T03:32:19.323Z,31.70
2019-06-07T03:35:05.572Z,31.70
2019-06-07T03:37:47.840Z,31.70
2019-06-07T03:43:38.692Z,31.80
2019-06-07T03:46:23.421Z,31.90
2019-06-07T03:52:05.709Z,32.30
2019-06-07T03:54:49.336Z,32.30
2019-06-07T03:58:27.498Z,32.20
2019-06-07T04:00:15.098Z,32.10
2019-06-07T04:12:15.541Z,31.80
2019-06-07T04:14:56.224Z,32.00
2019-06-07T04:17:37.089Z,32.00
2019-06-07T04:20:34.094Z,32.00
2019-06-07T04:23:27.952Z,32.00
2019-06-07T04:26:04.330Z,31.90
2019-06-07T04:38:04.779Z,31.80
2019-06-07T04:40:49.736Z,32.00
2019-06-07T04:46:35.219Z,32.20
2019-06-07T04:49:17.854Z,32.20
2019-06-07T04:55:03.886Z,32.10
2019-06-07T04:57:48.479Z,32.10
2019-06-07T05:00:56.565Z,32.30
2019-06-07T05:03:16.094Z,32.30
2019-06-07T05:09:01.462Z,32.30
2019-06-07T05:11:59.892Z,32.40
2019-06-07T05:15:15.716Z,32.40
2019-06-07T05:17:57.158Z,32.30
2019-06-07T05:20:44.725Z,32.20
2019-06-07T05:24:03.579Z,32.20
2019-06-07T05:26:22.061Z,32.20
2019-06-07T05:29:08.482Z,32.30
2019-06-07T05:31:48.426Z,32.30
2019-06-07T05:34:34.566Z,32.50
2019-06-07T05:37:25.432Z,32.60
2019-06-07T05:43:17.407Z,32.70
2019-06-07T05:46:07.826Z,32.70
2019-06-07T05:48:56.758Z,32.60
2019-06-07T05:51:43.320Z,32.60
2019-06-07T05:54:24.870Z,32.70
2019-06-07T05:57:07.111Z,32.80
2019-06-07T05:59:51.581Z,33.00
2019-06-07T06:02:52.958Z,33.00
2019-06-07T06:05:32.437Z,33.00
2019-06-07T06:08:05.404Z,33.00
2019-06-07T06:10:50.571Z,33.00
2019-06-07T06:17:09.298Z,32.80
2019-06-07T06:19:53.450Z,32.80
2019-06-07T06:22:48.131Z,32.80
2019-06-07T06:25:34.620Z,32.80
2019-06-07T06:31:21.946Z,33.20
2019-06-07T06:37:07.587Z,33.60
2019-06-07T06:39:55.155Z,33.60
2019-06-07T06:42:37.299Z,33.70
2019-06-07T06:45:24.729Z,33.80
2019-06-07T06:48:09.938Z,34.00
2019-06-07T06:53:55.939Z,34.10
2019-06-07T06:56:45.131Z,34.30
2019-06-07T06:59:38.844Z,34.30
2019-06-07T07:02:16.491Z,34.50
2019-06-07T07:05:02.569Z,34.70
2019-06-07T07:07:50.031Z,34.80
2019-06-07T07:10:45.899Z,35.00
2019-06-07T07:13:29.024Z,35.20
2019-06-07T07:16:14.189Z,35.20
2019-06-07T07:22:15.918Z,35.10
2019-06-07T07:24:49.377Z,34.80
2019-06-07T07:27:30.431Z,34.60
2019-06-07T07:32:57.237Z,34.70
2019-06-07T07:35:40.485Z,34.90
2019-06-07T07:38:29.547Z,35.00
2019-06-07T07:41:19.012Z,34.80
2019-06-07T07:47:00.257Z,34.30
2019-06-07T07:49:44.771Z,34.20
2019-06-07T07:52:27.484Z,34.10
2019-06-07T07:55:16.700Z,34.10
2019-06-07T08:01:38.928Z,33.90
2019-06-07T08:05:13.544Z,33.80
2019-06-07T08:07:31.269Z,34.00
2019-06-07T08:10:16.838Z,34.30
2019-06-07T08:13:22.744Z,34.50
2019-06-07T08:15:41.120Z,34.70
2019-06-07T08:21:28.690Z,34.40
2019-06-07T08:24:17.281Z,34.40
2019-06-07T08:36:11.901Z,34.30
2019-06-07T08:38:50.927Z,34.10
2019-06-07T08:41:32.792Z,34.10
2019-06-07T08:44:23.296Z,33.90
2019-06-07T08:47:16.673Z,33.80
2019-06-07T08:49:44.263Z,33.70
2019-06-07T08:52:32.376Z,33.70
2019-06-07T08:58:10.118Z,33.80
2019-06-07T09:00:48.887Z,33.60
2019-06-07T09:03:36.922Z,33.50
2019-06-07T09:09:18.872Z,33.40
2019-06-07T09:12:00.294Z,33.30
2019-06-07T09:18:29.513Z,33.10
2019-06-07T09:20:36.341Z,33.00
2019-06-07T09:23:15.707Z,33.00
2019-06-07T09:26:01.247Z,33.30
2019-06-07T09:28:37.085Z,33.10
2019-06-07T09:40:24.848Z,32.80
2019-06-07T09:43:47.493Z,32.70
2019-06-07T09:45:44.776Z,32.70
2019-06-07T09:51:19.082Z,32.60
2019-06-07T09:53:54.157Z,32.60
2019-06-07T09:56:51.852Z,32.60
2019-06-07T09:59:35.162Z,32.60
2019-06-07T10:02:23.513Z,32.50
2019-06-07T10:05:14.012Z,32.50
2019-06-07T10:08:09.424Z,32.50
2019-06-07T10:10:40.832Z,32.90
2019-06-07T10:13:25.058Z,33.00
2019-06-07T10:16:15.703Z,32.80
2019-06-07T10:19:03.673Z,32.70
2019-06-07T10:21:47.036Z,32.60
2019-06-07T10:24:28.472Z,32.60
2019-06-07T10:27:12.949Z,32.50
2019-06-07T10:29:58.204Z,32.40
2019-06-07T10:35:41.014Z,32.30
2019-06-07T10:41:45.308Z,32.30
2019-06-07T10:44:41.297Z,32.20
2019-06-07T10:47:26.006Z,32.20
2019-06-07T10:50:10.424Z,32.30
2019-06-07T10:53:26.563Z,32.30
2019-06-07T10:59:21.857Z,32.30
2019-06-07T11:02:07.799Z,32.30
2019-06-07T11:04:56.235Z,32.20
2019-06-07T11:07:39.970Z,32.20
2019-06-07T11:13:24.205Z,32.10
2019-06-07T11:16:15.480Z,32.00
2019-06-07T11:18:59.279Z,32.00
2019-06-07T11:21:52.150Z,32.00
2019-06-07T11:24:35.979Z,31.90
2019-06-07T11:27:24.224Z,31.90
2019-06-07T11:30:08.199Z,31.90
2019-06-07T11:35:55.812Z,31.90
2019-06-07T11:42:05.839Z,31.80
2019-06-07T11:45:34.545Z,32.00
2019-06-07T11:48:19.875Z,31.80
2019-06-07T11:51:01.766Z,31.60
2019-06-07T11:53:42.337Z,31.50
2019-06-07T11:56:36.520Z,31.50
2019-06-07T11:59:19.073Z,31.50
2019-06-07T12:02:03.298Z,31.50
2019-06-07T12:04:46.753Z,31.40
2019-06-07T12:07:27.048Z,31.40
2019-06-07T12:10:22.755Z,31.30
2019-06-07T12:13:08.379Z,31.30
2019-06-07T12:15:57.887Z,31.20
2019-06-07T12:18:37.973Z,31.20
2019-06-07T12:21:22.182Z,31.20
2019-06-07T12:24:14.169Z,31.20
2019-06-07T12:26:58.112Z,31.10
2019-06-07T12:29:38.739Z,31.00
2019-06-07T12:35:21.941Z,31.00
2019-06-07T12:47:38.056Z,30.80
2019-06-07T12:53:26.678Z,30.60
2019-06-07T12:56:04.071Z,30.60
2019-06-07T12:58:45.317Z,30.60
2019-06-07T13:01:28.918Z,30.50
2019-06-07T13:04:14.299Z,30.40
2019-06-07T13:06:54.944Z,30.40
2019-06-07T13:12:47.667Z,30.50
2019-06-07T13:15:26.469Z,30.50
2019-06-07T13:18:08.398Z,30.60
2019-06-07T13:20:55.188Z,30.60
2019-06-07T13:26:43.820Z,30.50
2019-06-07T13:29:32.244Z,30.40
2019-06-07T13:32:22.181Z,30.50
2019-06-07T13:35:04.477Z,30.40
2019-06-07T13:37:45.749Z,30.40
2019-06-07T13:40:30.483Z,30.40
2019-06-07T13:43:21.435Z,30.70
2019-06-07T13:46:16.796Z,30.70
2019-06-07T13:49:04.230Z,30.70
2019-06-07T13:54:44.362Z,30.70
2019-06-07T13:57:33.431Z,30.70
2019-06-07T14:00:14.093Z,30.70
2019-06-07T14:02:55.386Z,30.70
2019-06-07T14:08:36.953Z,30.70
2019-06-07T14:14:26.966Z,30.70
2019-06-07T14:17:08.349Z,30.60
2019-06-07T14:23:02.601Z,30.50
2019-06-07T14:25:42.759Z,30.50
2019-06-07T14:28:32.228Z,30.50
2019-06-07T14:37:19.458Z,30.50
2019-06-07T14:40:07.714Z,30.90
2019-06-07T14:46:11.327Z,30.70
2019-06-07T14:48:59.048Z,30.60
2019-06-07T14:51:44.476Z,30.50
2019-06-07T14:54:38.793Z,30.50
2019-06-07T15:00:12.894Z,30.50
2019-06-07T15:02:58.736Z,30.50
2019-06-07T15:09:02.179Z,30.60
2019-06-07T15:11:52.077Z,30.60
2019-06-07T15:14:38.969Z,30.60
2019-06-07T15:17:47.783Z,30.60
2019-06-07T15:20:36.393Z,30.60
2019-06-07T15:26:24.868Z,30.60
2019-06-07T15:29:13.194Z,30.60
2019-06-07T15:31:59.241Z,30.60
2019-06-07T15:34:44.436Z,30.50
2019-06-07T15:37:28.379Z,30.50
2019-06-07T15:40:20.700Z,30.60
2019-06-07T15:43:01.291Z,30.60
2019-06-07T15:45:52.931Z,30.60
2019-06-07T15:48:43.818Z,30.50
2019-06-07T15:51:38.519Z,30.50
2019-06-07T15:54:34.293Z,30.50
2019-06-07T15:57:21.120Z,30.70
2019-06-07T16:00:03.790Z,30.70
2019-06-07T16:02:59.629Z,30.60
2019-06-07T16:05:43.214Z,30.50
2019-06-07T16:08:29.924Z,30.50
2019-06-07T16:11:23.019Z,30.50
2019-06-07T16:14:07.766Z,30.40
2019-06-07T16:16:54.306Z,30.40
2019-06-07T16:19:50.993Z,30.40
2019-06-07T16:22:33.812Z,30.30
2019-06-07T16:25:17.178Z,30.20
2019-06-07T16:31:03.845Z,30.60
2019-06-07T16:33:48.989Z,30.50
2019-06-07T16:36:36.145Z,30.40
2019-06-07T16:39:26.898Z,30.40
2019-06-07T16:42:10.367Z,30.40
2019-06-07T16:48:01.175Z,30.40
2019-06-07T16:50:50.566Z,30.20
2019-06-07T16:53:33.884Z,30.20
2019-06-07T16:56:15.945Z,30.10
2019-06-07T17:04:57.970Z,30.00
2019-06-07T17:07:44.686Z,30.30
2019-06-07T17:10:31.358Z,30.20
2019-06-07T17:19:18.255Z,30.00
2019-06-07T17:21:59.006Z,30.00
2019-06-07T17:24:41.314Z,29.90
2019-06-07T17:27:22.111Z,29.90
2019-06-07T17:30:05.108Z,29.90
2019-06-07T17:35:58.602Z,29.70
2019-06-07T17:38:40.420Z,29.70
2019-06-07T17:41:22.417Z,29.70
2019-06-07T17:44:08.935Z,29.80
2019-06-07T17:46:49.938Z,29.80
2019-06-07T17:49:31.881Z,29.80
2019-06-07T17:52:12.165Z,29.80
2019-06-07T17:54:52.500Z,29.80
2019-06-07T17:57:33.359Z,29.80
2019-06-07T18:00:33.346Z,29.70
2019-06-07T18:03:14.439Z,29.80
2019-06-07T18:05:57.540Z,29.80
2019-06-07T18:08:51.655Z,29.70
2019-06-07T18:11:33.643Z,29.70
2019-06-07T18:14:19.929Z,29.90
2019-06-07T18:17:00.756Z,29.80
2019-06-07T18:19:39.447Z,29.70
2019-06-07T18:22:28.013Z,29.70
2019-06-07T18:25:07.264Z,29.60
2019-06-07T18:27:48.488Z,29.50
2019-06-07T18:30:27.759Z,29.60
2019-06-07T18:33:13.177Z,29.60
2019-06-07T18:35:55.376Z,29.40
2019-06-07T18:38:40.516Z,29.40
2019-06-07T18:41:29.762Z,29.40
2019-06-07T18:44:20.769Z,29.30
2019-06-07T18:46:54.402Z,29.40
2019-06-07T18:49:42.419Z,29.40
2019-06-07T18:52:30.574Z,29.40
2019-06-07T18:55:15.686Z,29.30
2019-06-07T18:57:56.456Z,29.30
2019-06-07T19:00:36.388Z,29.20
2019-06-07T19:03:17.226Z,29.20
2019-06-07T19:06:09.037Z,29.20
2019-06-07T19:08:54.758Z,29.20
2019-06-07T19:11:38.953Z,29.20
2019-06-07T19:14:36.085Z,29.10
2019-06-07T19:17:04.924Z,29.10
2019-06-07T19:19:46.942Z,29.60
2019-06-07T19:22:34.895Z,29.50
2019-06-07T19:25:25.804Z,29.40
2019-06-07T19:28:05.759Z,29.30
2019-06-07T19:30:49.269Z,29.20
2019-06-07T19:33:46.251Z,29.10
2019-06-07T19:36:19.336Z,29.10
2019-06-07T19:39:00.254Z,29.10
2019-06-07T19:41:47.608Z,29.10
2019-06-07T19:44:51.709Z,29.10
2019-06-07T19:47:18.220Z,29.10
2019-06-07T19:50:01.024Z,29.10
2019-06-07T19:52:45.272Z,29.10
2019-06-07T19:55:27.121Z,29.10
2019-06-07T19:58:08.081Z,29.10
2019-06-07T20:00:48.921Z,29.10
2019-06-07T20:03:31.779Z,29.00
2019-06-07T20:06:15.199Z,29.00
2019-06-07T20:08:54.735Z,29.10
2019-06-07T20:11:36.834Z,29.00
2019-06-07T20:14:17.685Z,29.00
2019-06-07T20:16:59.554Z,29.00
2019-06-07T20:19:45.401Z,29.10
2019-06-07T20:22:24.711Z,29.20
2019-06-07T20:25:06.029Z,29.10
2019-06-07T20:27:47.420Z,29.10
2019-06-07T20:30:29.198Z,29.10
2019-06-07T20:33:11.023Z,29.00
2019-06-07T20:35:53.670Z,29.00
2019-06-07T20:38:35.945Z,29.00
2019-06-07T20:41:18.675Z,28.90
2019-06-07T20:43:57.789Z,29.00
2019-06-07T20:46:40.521Z,29.00
2019-06-07T20:49:21.961Z,29.00
2019-06-07T20:52:04.709Z,29.00
2019-06-07T20:54:50.622Z,29.00
2019-06-07T20:57:30.935Z,29.00
2019-06-07T21:00:21.368Z,29.00
2019-06-07T21:03:03.233Z,29.00
2019-06-07T21:05:46.251Z,29.00
2019-06-07T21:08:27.618Z,29.10
2019-06-07T21:11:09.836Z,29.10
2019-06-07T21:13:53.120Z,29.10
2019-06-07T21:16:42.903Z,29.10
2019-06-07T21:19:23.206Z,29.10
2019-06-07T21:22:06.857Z,29.10
2019-06-07T21:24:50.244Z,29.10
2019-06-07T21:27:31.199Z,29.30
2019-06-07T21:30:13.284Z,29.20
2019-06-07T21:32:55.491Z,29.20
2019-06-07T21:35:34.789Z,29.20
2019-06-07T21:38:15.357Z,29.20
2019-06-07T21:40:59.828Z,29.10
2019-06-07T21:43:46.965Z,29.10
2019-06-07T21:46:28.122Z,29.10
2019-06-07T21:49:08.463Z,29.10
2019-06-07T21:51:48.190Z,29.00
2019-06-07T21:54:32.011Z,29.00
2019-06-07T21:57:14.456Z,29.00
2019-06-07T21:59:55.661Z,28.90
2019-06-07T22:02:37.641Z,28.90
2019-06-07T22:05:20.244Z,28.90
2019-06-07T22:08:05.939Z,28.90
2019-06-07T22:10:46.035Z,28.90
2019-06-07T22:13:24.574Z,28.80
2019-06-07T22:16:21.264Z,28.80
2019-06-07T22:18:51.893Z,28.70
2019-06-07T22:21:31.439Z,28.70
2019-06-07T22:24:33.867Z,28.80
2019-06-07T22:27:15.815Z,28.70
2019-06-07T22:32:58.409Z,29.00
2019-06-07T22:35:40.668Z,28.90
2019-06-07T22:38:32.842Z,28.80
2019-06-07T22:41:20.931Z,28.90
2019-06-07T22:44:03.379Z,28.80
2019-06-07T22:46:48.661Z,28.90
2019-06-07T22:49:29.448Z,28.80
2019-06-07T22:52:13.424Z,28.70
2019-06-07T22:54:57.221Z,28.70
2019-06-07T22:57:58.355Z,28.70
2019-06-07T23:00:37.939Z,28.70
2019-06-07T23:03:19.089Z,28.70
2019-06-07T23:08:56.118Z,29.00
2019-06-07T23:11:36.234Z,28.90
2019-06-07T23:14:20.449Z,28.80
2019-06-07T23:17:02.757Z,28.70
2019-06-07T23:19:45.346Z,28.70
2019-06-07T23:22:31.904Z,28.70
2019-06-07T23:25:20.208Z,28.80
2019-06-07T23:27:58.753Z,28.80
2019-06-07T23:31:08.595Z,28.70
2019-06-07T23:37:17.566Z,28.70
2019-06-07T23:40:30.912Z,29.20
2019-06-07T23:44:07.946Z,29.00
2019-06-07T23:49:52.191Z,29.00
2019-06-07T23:52:34.083Z,29.00
2019-06-07T23:55:13.948Z,28.90
